sensor_id;sensor_type;location;lat;lon;timestamp;pressure;altitude;pressure_sealevel;temperature;humidity
45050;BME280;61798;48.048;-1.928;2023-05-29T00:00:54;101005.59;;;14.19;100.00
45050;BME280;61798;48.048;-1.928;2023-05-29T00:03:00;101038.56;;;14.27;100.00
45050;BME280;61798;48.048;-1.928;2023-05-29T00:05:07;101032.56;;;14.05;100.00
45050;BME280;61798;48.048;-1.928;2023-05-29T00:07:12;101023.03;;;13.95;100.00
45050;BME280;61798;48.048;-1.928;2023-05-29T00:09:18;101049.78;;;14.31;100.00
45050;BME280;61798;48.048;-1.928;2023-05-29T00:11:24;101036.91;;;14.20;100.00
45050;BME280;61798;48.048;-1.928;2023-05-29T00:13:31;101021.56;;;14.00;100.00
45050;BME280;61798;48.048;-1.928;2023-05-29T00:15:37;101042.72;;;14.10;100.00
45050;BME280;61798;48.048;-1.928;2023-05-29T00:17:42;101013.50;;;13.93;100.00
45050;BME280;61798;48.048;-1.928;2023-05-29T00:19:48;101017.00;;;14.07;100.00
45050;BME280;61798;48.048;-1.928;2023-05-29T00:21:54;101037.53;;;14.01;100.00
45050;BME280;61798;48.048;-1.928;2023-05-29T00:24:00;101029.03;;;14.11;100.00
45050;BME280;61798;48.048;-1.928;2023-05-29T00:26:06;101043.53;;;14.10;100.00
45050;BME280;61798;48.048;-1.928;2023-05-29T00:28:12;101043.31;;;13.84;100.00
45050;BME280;61798;48.048;-1.928;2023-05-29T00:30:18;101055.78;;;14.33;100.00
45050;BME280;61798;48.048;-1.928;2023-05-29T00:32:24;101020.13;;;14.04;100.00
45050;BME280;61798;48.048;-1.928;2023-05-29T00:34:31;101038.34;;;14.02;100.00
45050;BME280;61798;48.048;-1.928;2023-05-29T00:36:37;101020.53;;;13.94;100.00
45050;BME280;61798;48.048;-1.928;2023-05-29T00:38:42;101022.81;;;13.83;100.00
45050;BME280;61798;48.048;-1.928;2023-05-29T00:40:48;101041.44;;;13.78;100.00
45050;BME280;61798;48.048;-1.928;2023-05-29T00:42:55;101042.28;;;13.79;100.00
45050;BME280;61798;48.048;-1.928;2023-05-29T00:45:00;101047.06;;;14.04;100.00
45050;BME280;61798;48.048;-1.928;2023-05-29T00:47:06;101045.59;;;13.94;100.00
45050;BME280;61798;48.048;-1.928;2023-05-29T00:49:13;100989.41;;;13.57;100.00
45050;BME280;61798;48.048;-1.928;2023-05-29T00:51:19;101050.81;;;14.16;100.00
45050;BME280;61798;48.048;-1.928;2023-05-29T00:53:25;101019.63;;;13.59;100.00
45050;BME280;61798;48.048;-1.928;2023-05-29T00:55:32;101047.88;;;13.77;100.00
45050;BME280;61798;48.048;-1.928;2023-05-29T00:57:38;101032.72;;;13.62;100.00
45050;BME280;61798;48.048;-1.928;2023-05-29T00:59:45;101022.25;;;13.32;100.00
45050;BME280;61798;48.048;-1.928;2023-05-29T01:01:54;101015.44;;;13.43;100.00
45050;BME280;61798;48.048;-1.928;2023-05-29T01:04:03;100992.41;;;13.27;100.00
45050;BME280;61798;48.048;-1.928;2023-05-29T01:06:12;101022.06;;;13.34;100.00
45050;BME280;61798;48.048;-1.928;2023-05-29T01:08:18;101047.97;;;13.48;100.00
45050;BME280;61798;48.048;-1.928;2023-05-29T01:10:25;101044.22;;;13.42;100.00
45050;BME280;61798;48.048;-1.928;2023-05-29T01:12:57;101029.22;;;13.13;100.00
45050;BME280;61798;48.048;-1.928;2023-05-29T01:25:10;101019.38;;;13.40;100.00
45050;BME280;61798;48.048;-1.928;2023-05-29T01:27:19;101039.16;;;13.75;100.00
45050;BME280;61798;48.048;-1.928;2023-05-29T01:29:29;101024.34;;;13.43;100.00
45050;BME280;61798;48.048;-1.928;2023-05-29T01:31:37;101015.03;;;13.39;100.00
45050;BME280;61798;48.048;-1.928;2023-05-29T01:33:52;101036.13;;;13.36;100.00
45050;BME280;61798;48.048;-1.928;2023-05-29T01:35:58;101038.22;;;13.40;100.00
45050;BME280;61798;48.048;-1.928;2023-05-29T01:38:03;101023.69;;;13.35;100.00
45050;BME280;61798;48.048;-1.928;2023-05-29T01:40:10;101047.91;;;13.35;100.00
45050;BME280;61798;48.048;-1.928;2023-05-29T01:42:16;100993.25;;;12.78;100.00
45050;BME280;61798;48.048;-1.928;2023-05-29T01:44:22;101018.59;;;12.97;100.00
45050;BME280;61798;48.048;-1.928;2023-05-29T01:46:29;101008.56;;;13.27;100.00
45050;BME280;61798;48.048;-1.928;2023-05-29T01:48:35;101034.44;;;13.28;100.00
45050;BME280;61798;48.048;-1.928;2023-05-29T01:50:42;101044.34;;;13.20;100.00
45050;BME280;61798;48.048;-1.928;2023-05-29T01:52:49;101036.56;;;13.39;100.00
45050;BME280;61798;48.048;-1.928;2023-05-29T01:54:55;101022.75;;;13.07;100.00
45050;BME280;61798;48.048;-1.928;2023-05-29T01:57:02;100986.91;;;12.86;100.00
45050;BME280;61798;48.048;-1.928;2023-05-29T01:59:10;101028.13;;;13.00;100.00
45050;BME280;61798;48.048;-1.928;2023-05-29T02:01:19;101027.31;;;13.06;100.00
45050;BME280;61798;48.048;-1.928;2023-05-29T02:03:26;101049.72;;;13.14;100.00
45050;BME280;61798;48.048;-1.928;2023-05-29T02:05:34;101017.34;;;12.93;100.00
45050;BME280;61798;48.048;-1.928;2023-05-29T02:07:40;101031.16;;;13.32;100.00
45050;BME280;61798;48.048;-1.928;2023-05-29T02:09:46;100992.59;;;12.69;100.00
45050;BME280;61798;48.048;-1.928;2023-05-29T02:11:52;101055.84;;;13.00;100.00
45050;BME280;61798;48.048;-1.928;2023-05-29T02:13:58;101036.00;;;13.02;100.00
45050;BME280;61798;48.048;-1.928;2023-05-29T02:16:04;101052.34;;;13.00;100.00
45050;BME280;61798;48.048;-1.928;2023-05-29T02:18:12;101049.13;;;12.83;100.00
45050;BME280;61798;48.048;-1.928;2023-05-29T02:20:18;101041.06;;;12.83;100.00
45050;BME280;61798;48.048;-1.928;2023-05-29T02:22:25;101046.53;;;12.61;100.00
45050;BME280;61798;48.048;-1.928;2023-05-29T02:24:32;101027.59;;;12.47;100.00
45050;BME280;61798;48.048;-1.928;2023-05-29T02:26:38;101054.91;;;12.79;100.00
45050;BME280;61798;48.048;-1.928;2023-05-29T02:28:44;101024.16;;;12.53;100.00
45050;BME280;61798;48.048;-1.928;2023-05-29T02:30:50;101048.84;;;12.71;100.00
45050;BME280;61798;48.048;-1.928;2023-05-29T02:32:56;101011.19;;;12.35;100.00
45050;BME280;61798;48.048;-1.928;2023-05-29T02:35:03;101019.94;;;12.44;100.00
45050;BME280;61798;48.048;-1.928;2023-05-29T02:37:09;101046.53;;;12.61;100.00
45050;BME280;61798;48.048;-1.928;2023-05-29T02:39:15;101023.66;;;12.78;100.00
45050;BME280;61798;48.048;-1.928;2023-05-29T02:41:20;101038.03;;;12.99;100.00
45050;BME280;61798;48.048;-1.928;2023-05-29T02:43:26;101021.63;;;12.81;100.00
45050;BME280;61798;48.048;-1.928;2023-05-29T02:45:32;101039.31;;;12.68;100.00
45050;BME280;61798;48.048;-1.928;2023-05-29T02:47:38;101032.94;;;12.69;100.00
45050;BME280;61798;48.048;-1.928;2023-05-29T02:49:44;101045.31;;;12.70;100.00
45050;BME280;61798;48.048;-1.928;2023-05-29T02:51:50;101028.56;;;12.68;100.00
45050;BME280;61798;48.048;-1.928;2023-05-29T02:53:55;101022.78;;;12.71;100.00
45050;BME280;61798;48.048;-1.928;2023-05-29T02:56:01;101021.53;;;12.67;100.00
45050;BME280;61798;48.048;-1.928;2023-05-29T02:58:07;101026.91;;;12.67;100.00
45050;BME280;61798;48.048;-1.928;2023-05-29T03:00:13;101038.00;;;12.86;100.00
45050;BME280;61798;48.048;-1.928;2023-05-29T03:02:19;100990.84;;;12.54;100.00
45050;BME280;61798;48.048;-1.928;2023-05-29T03:04:26;101003.50;;;12.61;100.00
45050;BME280;61798;48.048;-1.928;2023-05-29T03:06:32;101031.06;;;12.69;100.00
45050;BME280;61798;48.048;-1.928;2023-05-29T03:08:38;101014.66;;;12.57;100.00
45050;BME280;61798;48.048;-1.928;2023-05-29T03:10:50;101032.16;;;12.82;100.00
45050;BME280;61798;48.048;-1.928;2023-05-29T03:12:57;101017.97;;;12.60;100.00
45050;BME280;61798;48.048;-1.928;2023-05-29T03:15:03;101026.28;;;12.65;100.00
45050;BME280;61798;48.048;-1.928;2023-05-29T03:17:10;101015.81;;;12.48;100.00
45050;BME280;61798;48.048;-1.928;2023-05-29T03:19:16;101041.59;;;12.64;100.00
45050;BME280;61798;48.048;-1.928;2023-05-29T03:21:22;101039.78;;;12.78;100.00
45050;BME280;61798;48.048;-1.928;2023-05-29T03:23:29;101023.50;;;12.87;100.00
45050;BME280;61798;48.048;-1.928;2023-05-29T03:25:34;101005.47;;;12.45;100.00
45050;BME280;61798;48.048;-1.928;2023-05-29T03:27:41;101017.44;;;12.42;100.00
45050;BME280;61798;48.048;-1.928;2023-05-29T03:29:47;101010.47;;;12.48;100.00
45050;BME280;61798;48.048;-1.928;2023-05-29T03:31:53;101043.25;;;12.65;100.00
45050;BME280;61798;48.048;-1.928;2023-05-29T03:33:59;101010.63;;;12.46;100.00
45050;BME280;61798;48.048;-1.928;2023-05-29T03:36:06;101032.06;;;12.97;100.00
45050;BME280;61798;48.048;-1.928;2023-05-29T03:38:13;101026.84;;;12.89;100.00
45050;BME280;61798;48.048;-1.928;2023-05-29T03:40:19;101045.69;;;12.60;100.00
45050;BME280;61798;48.048;-1.928;2023-05-29T03:42:25;101042.53;;;12.85;100.00
45050;BME280;61798;48.048;-1.928;2023-05-29T03:44:31;101043.25;;;12.65;100.00
45050;BME280;61798;48.048;-1.928;2023-05-29T03:46:36;101022.31;;;12.61;100.00
45050;BME280;61798;48.048;-1.928;2023-05-29T03:48:42;101049.94;;;12.76;100.00
45050;BME280;61798;48.048;-1.928;2023-05-29T03:50:49;101035.41;;;12.71;100.00
45050;BME280;61798;48.048;-1.928;2023-05-29T03:52:55;101036.09;;;12.51;100.00
45050;BME280;61798;48.048;-1.928;2023-05-29T03:55:02;101032.44;;;12.58;100.00
45050;BME280;61798;48.048;-1.928;2023-05-29T03:57:08;101038.31;;;12.69;100.00
45050;BME280;61798;48.048;-1.928;2023-05-29T03:59:14;101061.91;;;12.74;100.00
45050;BME280;61798;48.048;-1.928;2023-05-29T04:01:20;101022.91;;;12.27;100.00
45050;BME280;61798;48.048;-1.928;2023-05-29T04:03:26;101053.47;;;12.48;100.00
45050;BME280;61798;48.048;-1.928;2023-05-29T04:05:34;101054.16;;;12.57;100.00
45050;BME280;61798;48.048;-1.928;2023-05-29T04:07:41;101063.13;;;12.71;100.00
45050;BME280;61798;48.048;-1.928;2023-05-29T04:09:47;101025.19;;;12.30;100.00
45050;BME280;61798;48.048;-1.928;2023-05-29T04:11:53;101049.25;;;12.39;100.00
45050;BME280;61798;48.048;-1.928;2023-05-29T04:14:01;101020.56;;;12.17;100.00
45050;BME280;61798;48.048;-1.928;2023-05-29T04:16:08;101068.03;;;12.61;100.00
45050;BME280;61798;48.048;-1.928;2023-05-29T04:18:13;101039.16;;;12.19;100.00
45050;BME280;61798;48.048;-1.928;2023-05-29T04:20:20;101042.72;;;12.48;100.00
45050;BME280;61798;48.048;-1.928;2023-05-29T04:22:26;101062.94;;;12.44;100.00
45050;BME280;61798;48.048;-1.928;2023-05-29T04:24:33;101062.91;;;12.37;100.00
45050;BME280;61798;48.048;-1.928;2023-05-29T04:26:39;101064.50;;;12.31;100.00
45050;BME280;61798;48.048;-1.928;2023-05-29T04:28:46;101075.00;;;12.26;100.00
45050;BME280;61798;48.048;-1.928;2023-05-29T04:30:54;101086.88;;;12.39;100.00
45050;BME280;61798;48.048;-1.928;2023-05-29T04:33:01;101055.03;;;12.13;100.00
45050;BME280;61798;48.048;-1.928;2023-05-29T04:35:08;101098.66;;;12.37;100.00
45050;BME280;61798;48.048;-1.928;2023-05-29T04:37:15;101098.44;;;12.61;100.00
45050;BME280;61798;48.048;-1.928;2023-05-29T04:39:21;101084.03;;;12.47;100.00
45050;BME280;61798;48.048;-1.928;2023-05-29T04:41:27;101079.25;;;12.42;100.00
45050;BME280;61798;48.048;-1.928;2023-05-29T04:43:36;101045.16;;;11.99;100.00
45050;BME280;61798;48.048;-1.928;2023-05-29T04:45:43;101091.72;;;12.50;100.00
45050;BME280;61798;48.048;-1.928;2023-05-29T04:47:49;101098.81;;;12.29;100.00
45050;BME280;61798;48.048;-1.928;2023-05-29T04:49:55;101066.97;;;12.11;100.00
45050;BME280;61798;48.048;-1.928;2023-05-29T04:52:00;101066.53;;;12.07;100.00
45050;BME280;61798;48.048;-1.928;2023-05-29T04:54:09;101085.53;;;12.27;100.00
45050;BME280;61798;48.048;-1.928;2023-05-29T04:56:15;101100.31;;;12.39;100.00
45050;BME280;61798;48.048;-1.928;2023-05-29T04:58:21;101083.75;;;12.35;100.00
45050;BME280;61798;48.048;-1.928;2023-05-29T05:00:27;101086.81;;;12.32;100.00
45050;BME280;61798;48.048;-1.928;2023-05-29T05:02:33;101063.09;;;12.13;100.00
45050;BME280;61798;48.048;-1.928;2023-05-29T05:04:38;101109.41;;;12.37;100.00
45050;BME280;61798;48.048;-1.928;2023-05-29T05:06:44;101089.94;;;12.35;100.00
45050;BME280;61798;48.048;-1.928;2023-05-29T05:08:51;101098.25;;;11.97;100.00
45050;BME280;61798;48.048;-1.928;2023-05-29T05:10:57;101076.06;;;11.88;100.00
45050;BME280;61798;48.048;-1.928;2023-05-29T05:13:04;101102.34;;;12.14;100.00
45050;BME280;61798;48.048;-1.928;2023-05-29T05:15:12;101097.56;;;12.32;100.00
45050;BME280;61798;48.048;-1.928;2023-05-29T05:17:18;101078.94;;;12.08;100.00
45050;BME280;61798;48.048;-1.928;2023-05-29T05:19:24;101094.63;;;12.26;100.00
45050;BME280;61798;48.048;-1.928;2023-05-29T05:21:30;101079.06;;;12.00;100.00
45050;BME280;61798;48.048;-1.928;2023-05-29T05:23:38;101105.91;;;12.37;100.00
45050;BME280;61798;48.048;-1.928;2023-05-29T05:25:44;101107.25;;;12.26;100.00
45050;BME280;61798;48.048;-1.928;2023-05-29T05:27:50;101085.59;;;12.34;100.00
45050;BME280;61798;48.048;-1.928;2023-05-29T05:29:56;101084.78;;;12.34;100.00
45050;BME280;61798;48.048;-1.928;2023-05-29T05:32:01;101112.41;;;12.27;100.00
45050;BME280;61798;48.048;-1.928;2023-05-29T05:34:07;101124.63;;;12.30;100.00
45050;BME280;61798;48.048;-1.928;2023-05-29T05:36:13;101105.75;;;12.23;100.00
45050;BME280;61798;48.048;-1.928;2023-05-29T05:38:20;101104.94;;;12.23;100.00
45050;BME280;61798;48.048;-1.928;2023-05-29T05:40:26;101116.44;;;12.61;100.00
45050;BME280;61798;48.048;-1.928;2023-05-29T05:42:32;101128.91;;;12.68;100.00
45050;BME280;61798;48.048;-1.928;2023-05-29T05:44:38;101140.75;;;12.52;100.00
45050;BME280;61798;48.048;-1.928;2023-05-29T05:46:44;101112.09;;;12.37;100.00
45050;BME280;61798;48.048;-1.928;2023-05-29T05:48:50;101129.00;;;12.53;100.00
45050;BME280;61798;48.048;-1.928;2023-05-29T05:50:57;101122.91;;;12.44;100.00
45050;BME280;61798;48.048;-1.928;2023-05-29T05:53:03;101138.13;;;12.59;100.00
45050;BME280;61798;48.048;-1.928;2023-05-29T05:55:09;101131.69;;;12.53;100.00
45050;BME280;61798;48.048;-1.928;2023-05-29T05:57:15;101134.19;;;12.33;100.00
45050;BME280;61798;48.048;-1.928;2023-05-29T05:59:21;101123.16;;;12.50;100.00
45050;BME280;61798;48.048;-1.928;2023-05-29T06:01:26;101125.78;;;12.43;100.00
45050;BME280;61798;48.048;-1.928;2023-05-29T06:03:32;101118.59;;;12.50;100.00
45050;BME280;61798;48.048;-1.928;2023-05-29T06:05:38;101145.22;;;12.67;100.00
45050;BME280;61798;48.048;-1.928;2023-05-29T06:07:46;101124.66;;;12.59;100.00
45050;BME280;61798;48.048;-1.928;2023-05-29T06:09:52;101125.84;;;12.50;100.00
45050;BME280;61798;48.048;-1.928;2023-05-29T06:11:58;101127.94;;;12.54;100.00
45050;BME280;61798;48.048;-1.928;2023-05-29T06:14:04;101131.53;;;12.40;100.00
45050;BME280;61798;48.048;-1.928;2023-05-29T06:16:10;101146.31;;;12.73;100.00
45050;BME280;61798;48.048;-1.928;2023-05-29T06:18:16;101129.63;;;12.55;100.00
45050;BME280;61798;48.048;-1.928;2023-05-29T06:20:21;101156.28;;;12.79;100.00
45050;BME280;61798;48.048;-1.928;2023-05-29T06:22:28;101108.69;;;12.51;100.00
45050;BME280;61798;48.048;-1.928;2023-05-29T06:24:34;101157.75;;;12.82;100.00
45050;BME280;61798;48.048;-1.928;2023-05-29T06:26:40;101150.13;;;12.85;100.00
45050;BME280;61798;48.048;-1.928;2023-05-29T06:28:46;101127.50;;;12.51;100.00
45050;BME280;61798;48.048;-1.928;2023-05-29T06:30:52;101156.84;;;12.74;100.00
45050;BME280;61798;48.048;-1.928;2023-05-29T06:32:58;101160.22;;;12.83;100.00
45050;BME280;61798;48.048;-1.928;2023-05-29T06:35:04;101146.34;;;12.79;100.00
45050;BME280;61798;48.048;-1.928;2023-05-29T06:37:11;101132.66;;;12.74;100.00
45050;BME280;61798;48.048;-1.928;2023-05-29T06:39:17;101116.19;;;12.84;100.00
45050;BME280;61798;48.048;-1.928;2023-05-29T06:41:25;101122.47;;;12.98;100.00
45050;BME280;61798;48.048;-1.928;2023-05-29T06:43:31;101123.34;;;13.06;100.00
45050;BME280;61798;48.048;-1.928;2023-05-29T06:45:38;101163.03;;;13.32;100.00
45050;BME280;61798;48.048;-1.928;2023-05-29T06:47:43;101137.72;;;13.20;100.00
45050;BME280;61798;48.048;-1.928;2023-05-29T06:49:49;101141.63;;;13.17;100.00
45050;BME280;61798;48.048;-1.928;2023-05-29T06:51:55;101121.03;;;13.03;100.00
45050;BME280;61798;48.048;-1.928;2023-05-29T06:54:01;101151.97;;;13.14;100.00
45050;BME280;61798;48.048;-1.928;2023-05-29T06:56:07;101138.72;;;13.12;100.00
45050;BME280;61798;48.048;-1.928;2023-05-29T06:58:13;101128.47;;;13.29;100.00
45050;BME280;61798;48.048;-1.928;2023-05-29T07:00:19;101162.91;;;13.48;100.00
45050;BME280;61798;48.048;-1.928;2023-05-29T07:02:25;101175.03;;;13.66;100.00
45050;BME280;61798;48.048;-1.928;2023-05-29T07:04:31;101155.16;;;13.67;100.00
45050;BME280;61798;48.048;-1.928;2023-05-29T07:06:37;101163.66;;;13.70;100.00
45050;BME280;61798;48.048;-1.928;2023-05-29T07:08:44;101141.81;;;13.58;100.00
45050;BME280;61798;48.048;-1.928;2023-05-29T07:10:49;101157.63;;;13.61;100.00
45050;BME280;61798;48.048;-1.928;2023-05-29T07:12:56;101145.19;;;13.60;100.00
45050;BME280;61798;48.048;-1.928;2023-05-29T07:15:01;101168.44;;;13.75;100.00
45050;BME280;61798;48.048;-1.928;2023-05-29T07:17:08;101169.53;;;13.94;100.00
45050;BME280;61798;48.048;-1.928;2023-05-29T07:19:13;101168.69;;;13.80;100.00
45050;BME280;61798;48.048;-1.928;2023-05-29T07:21:19;101165.34;;;13.78;100.00
45050;BME280;61798;48.048;-1.928;2023-05-29T07:23:26;101143.84;;;13.85;100.00
45050;BME280;61798;48.048;-1.928;2023-05-29T07:25:32;101172.25;;;14.01;100.00
45050;BME280;61798;48.048;-1.928;2023-05-29T07:27:38;101174.16;;;14.08;100.00
45050;BME280;61798;48.048;-1.928;2023-05-29T07:29:44;101157.16;;;14.14;100.00
45050;BME280;61798;48.048;-1.928;2023-05-29T07:31:50;101151.75;;;14.14;100.00
45050;BME280;61798;48.048;-1.928;2023-05-29T07:33:56;101172.31;;;14.22;100.00
45050;BME280;61798;48.048;-1.928;2023-05-29T07:36:02;101169.00;;;14.26;100.00
45050;BME280;61798;48.048;-1.928;2023-05-29T07:38:08;101175.66;;;14.58;100.00
45050;BME280;61798;48.048;-1.928;2023-05-29T07:40:14;101159.28;;;14.53;100.00
45050;BME280;61798;48.048;-1.928;2023-05-29T07:42:20;101149.53;;;14.52;100.00
45050;BME280;61798;48.048;-1.928;2023-05-29T07:44:26;101146.84;;;14.58;100.00
45050;BME280;61798;48.048;-1.928;2023-05-29T07:46:32;101149.09;;;14.41;100.00
45050;BME280;61798;48.048;-1.928;2023-05-29T07:48:37;101131.47;;;14.32;100.00
45050;BME280;61798;48.048;-1.928;2023-05-29T07:50:43;101141.66;;;14.64;100.00
45050;BME280;61798;48.048;-1.928;2023-05-29T07:52:49;101151.63;;;14.63;100.00
45050;BME280;61798;48.048;-1.928;2023-05-29T07:54:55;101117.78;;;14.54;100.00
45050;BME280;61798;48.048;-1.928;2023-05-29T07:57:01;101162.81;;;15.01;100.00
45050;BME280;61798;48.048;-1.928;2023-05-29T07:59:15;101136.66;;;14.95;100.00
45050;BME280;61798;48.048;-1.928;2023-05-29T08:01:23;101158.66;;;14.85;100.00
45050;BME280;61798;48.048;-1.928;2023-05-29T08:03:29;101150.56;;;14.78;100.00
45050;BME280;61798;48.048;-1.928;2023-05-29T08:05:35;101157.84;;;14.91;100.00
45050;BME280;61798;48.048;-1.928;2023-05-29T08:07:41;101131.69;;;14.92;100.00
45050;BME280;61798;48.048;-1.928;2023-05-29T08:09:49;101139.78;;;14.92;100.00
45050;BME280;61798;48.048;-1.928;2023-05-29T08:11:55;101143.25;;;15.26;100.00
45050;BME280;61798;48.048;-1.928;2023-05-29T08:14:01;101120.06;;;15.05;100.00
45050;BME280;61798;48.048;-1.928;2023-05-29T08:16:07;101162.28;;;15.45;100.00
45050;BME280;61798;48.048;-1.928;2023-05-29T08:18:12;101139.06;;;15.30;100.00
45050;BME280;61798;48.048;-1.928;2023-05-29T08:20:18;101169.78;;;15.43;100.00
45050;BME280;61798;48.048;-1.928;2023-05-29T08:22:28;101170.22;;;15.40;100.00
45050;BME280;61798;48.048;-1.928;2023-05-29T08:24:35;101153.13;;;15.53;100.00
45050;BME280;61798;48.048;-1.928;2023-05-29T08:26:41;101134.75;;;15.75;100.00
45050;BME280;61798;48.048;-1.928;2023-05-29T08:28:50;101166.94;;;15.84;100.00
45050;BME280;61798;48.048;-1.928;2023-05-29T08:30:56;101119.56;;;15.74;100.00
45050;BME280;61798;48.048;-1.928;2023-05-29T08:33:01;101139.06;;;16.23;100.00
45050;BME280;61798;48.048;-1.928;2023-05-29T08:35:08;101090.59;;;15.89;100.00
45050;BME280;61798;48.048;-1.928;2023-05-29T08:37:14;101129.25;;;15.96;100.00
45050;BME280;61798;48.048;-1.928;2023-05-29T08:39:20;101148.00;;;15.84;100.00
45050;BME280;61798;48.048;-1.928;2023-05-29T08:43:46;101158.69;;;16.04;100.00
45050;BME280;61798;48.048;-1.928;2023-05-29T08:45:54;101120.16;;;15.77;100.00
45050;BME280;61798;48.048;-1.928;2023-05-29T08:48:00;101131.97;;;15.89;100.00
45050;BME280;61798;48.048;-1.928;2023-05-29T08:50:07;101158.69;;;16.11;100.00
45050;BME280;61798;48.048;-1.928;2023-05-29T08:52:17;101159.91;;;16.09;100.00
45050;BME280;61798;48.048;-1.928;2023-05-29T08:54:24;101153.44;;;16.16;100.00
45050;BME280;61798;48.048;-1.928;2023-05-29T08:56:30;101132.88;;;16.09;100.00
45050;BME280;61798;48.048;-1.928;2023-05-29T08:58:37;101139.59;;;15.99;100.00
45050;BME280;61798;48.048;-1.928;2023-05-29T09:00:45;101157.03;;;16.10;100.00
45050;BME280;61798;48.048;-1.928;2023-05-29T09:02:51;101160.16;;;16.07;100.00
45050;BME280;61798;48.048;-1.928;2023-05-29T09:04:58;101164.09;;;16.04;100.00
45050;BME280;61798;48.048;-1.928;2023-05-29T09:07:04;101167.59;;;16.19;100.00
45050;BME280;61798;48.048;-1.928;2023-05-29T09:09:14;101151.38;;;16.19;100.00
45050;BME280;61798;48.048;-1.928;2023-05-29T09:11:20;101115.84;;;16.15;100.00
45050;BME280;61798;48.048;-1.928;2023-05-29T09:13:27;101123.97;;;16.08;100.00
45050;BME280;61798;48.048;-1.928;2023-05-29T09:15:33;101173.38;;;16.55;100.00
45050;BME280;61798;48.048;-1.928;2023-05-29T09:17:39;101158.06;;;16.42;100.00
45050;BME280;61798;48.048;-1.928;2023-05-29T09:19:45;101149.13;;;16.67;100.00
45050;BME280;61798;48.048;-1.928;2023-05-29T09:21:51;101151.78;;;16.48;100.00
45050;BME280;61798;48.048;-1.928;2023-05-29T09:24:03;101155.88;;;16.57;100.00
45050;BME280;61798;48.048;-1.928;2023-05-29T09:26:14;101162.38;;;16.75;100.00
45050;BME280;61798;48.048;-1.928;2023-05-29T09:28:23;101154.00;;;16.84;100.00
45050;BME280;61798;48.048;-1.928;2023-05-29T09:30:43;101147.22;;;17.12;100.00
45050;BME280;61798;48.048;-1.928;2023-05-29T09:32:53;101145.38;;;17.50;100.00
45050;BME280;61798;48.048;-1.928;2023-05-29T09:35:00;101144.09;;;17.84;100.00
45050;BME280;61798;48.048;-1.928;2023-05-29T09:37:07;101149.00;;;17.94;100.00
45050;BME280;61798;48.048;-1.928;2023-05-29T09:39:14;101135.81;;;17.97;100.00
45050;BME280;61798;48.048;-1.928;2023-05-29T09:41:21;101140.09;;;17.74;100.00
45050;BME280;61798;48.048;-1.928;2023-05-29T09:43:31;101119.75;;;17.96;100.00
45050;BME280;61798;48.048;-1.928;2023-05-29T09:45:42;101155.41;;;18.12;100.00
45050;BME280;61798;48.048;-1.928;2023-05-29T09:47:50;101136.13;;;17.89;100.00
45050;BME280;61798;48.048;-1.928;2023-05-29T09:49:56;101136.50;;;17.93;100.00
45050;BME280;61798;48.048;-1.928;2023-05-29T09:52:02;101109.59;;;17.60;100.00
45050;BME280;61798;48.048;-1.928;2023-05-29T09:54:15;101148.13;;;17.81;100.00
45050;BME280;61798;48.048;-1.928;2023-05-29T09:56:22;101156.69;;;18.09;100.00
45050;BME280;61798;48.048;-1.928;2023-05-29T09:58:31;101124.50;;;18.13;100.00
45050;BME280;61798;48.048;-1.928;2023-05-29T10:00:39;101161.50;;;18.26;100.00
45050;BME280;61798;48.048;-1.928;2023-05-29T10:02:45;101152.22;;;18.03;100.00
45050;BME280;61798;48.048;-1.928;2023-05-29T10:04:51;101147.97;;;18.07;100.00
45050;BME280;61798;48.048;-1.928;2023-05-29T10:07:00;101117.47;;;17.81;100.00
45050;BME280;61798;48.048;-1.928;2023-05-29T10:09:12;101140.94;;;18.18;100.00
45050;BME280;61798;48.048;-1.928;2023-05-29T10:11:21;101150.19;;;18.41;100.00
45050;BME280;61798;48.048;-1.928;2023-05-29T10:13:38;101149.16;;;18.42;100.00
45050;BME280;61798;48.048;-1.928;2023-05-29T10:15:46;101137.00;;;18.45;100.00
45050;BME280;61798;48.048;-1.928;2023-05-29T10:18:23;101146.09;;;18.75;100.00
45050;BME280;61798;48.048;-1.928;2023-05-29T10:20:33;101134.16;;;18.76;100.00
45050;BME280;61798;48.048;-1.928;2023-05-29T10:22:40;101129.34;;;18.66;100.00
45050;BME280;61798;48.048;-1.928;2023-05-29T10:24:51;101145.84;;;18.76;100.00
45050;BME280;61798;48.048;-1.928;2023-05-29T10:26:58;101137.69;;;19.12;100.00
45050;BME280;61798;48.048;-1.928;2023-05-29T10:29:19;101132.97;;;18.96;100.00
45050;BME280;61798;48.048;-1.928;2023-05-29T10:31:33;101125.06;;;19.06;100.00
45050;BME280;61798;48.048;-1.928;2023-05-29T10:36:25;101116.38;;;19.46;100.00
45050;BME280;61798;48.048;-1.928;2023-05-29T10:38:29;101121.16;;;19.14;100.00
45050;BME280;61798;48.048;-1.928;2023-05-29T10:40:35;101138.38;;;19.32;100.00
45050;BME280;61798;48.048;-1.928;2023-05-29T10:42:46;101133.09;;;19.25;100.00
45050;BME280;61798;48.048;-1.928;2023-05-29T10:44:53;101119.13;;;19.33;100.00
45050;BME280;61798;48.048;-1.928;2023-05-29T10:49:15;101106.34;;;19.46;100.00
45050;BME280;61798;48.048;-1.928;2023-05-29T10:51:26;101136.00;;;19.36;100.00
45050;BME280;61798;48.048;-1.928;2023-05-29T10:53:32;101137.19;;;19.40;100.00
45050;BME280;61798;48.048;-1.928;2023-05-29T10:55:39;101133.91;;;19.13;100.00
45050;BME280;61798;48.048;-1.928;2023-05-29T10:57:48;101139.00;;;19.10;100.00
45050;BME280;61798;48.048;-1.928;2023-05-29T11:00:07;101146.31;;;19.33;100.00
45050;BME280;61798;48.048;-1.928;2023-05-29T11:02:18;101120.47;;;19.07;100.00
45050;BME280;61798;48.048;-1.928;2023-05-29T11:04:27;101135.44;;;19.21;100.00